Sheridan Lake, CO (81071)

12:50 AM MST on February 12, 2016 (GMT -0700)
Tribune | | Change Station
CLOSE
Current Station
Personal Weather Station
Location: Tribune, KS
Elevation: 3600 ft
Nearby Weather Stations

Elev 3600 ft 38.47 °N, 101.75 °W | Updated 5 minutes ago

Clear
Clear
36.0 °F
Feels Like 36 °F
N
0.0
Wind Variable Wind from NNW
Gusts 0.0 mph

Today
High -- | Low -- °F
--% Chance of Precip.
Yesterday
High -- | Low -- °F
Precip. -- in
Pressure 30.25 in
Visibility 10.0 miles
Clouds Clear
Windchill 36 °F
Dew Point 28 °F
Humidity 74%
Rainfall 0.00 in
Snow Depth Not available.
6:43 AM 5:23 PM
Waxing Crescent, 18% visible
METAR KLAA 120653Z AUTO 28004KT 10SM CLR M03/M05 A3027 RMK AO2 SLP244 T10281050 402171044 TSNO
Pressure 30.25 in
Visibility 10.0 miles
Clouds Clear
Windchill 36 °F
Dew Point 28 °F
Humidity 74%
Rainfall 0.00 in
Snow Depth Not available.
6:43 AM 5:23 PM
Waxing Crescent, 18% visible
METAR KLAA 120653Z AUTO 28004KT 10SM CLR M03/M05 A3027 RMK AO2 SLP244 T10281050 402171044 TSNO

10-Day Weather Forecast

Almanac

Astronomy

Feb. 12, 2016 Rise Set
Actual Time
Civil Twilight
Nautical Twilight
Astronomical Twilight
Moon
Length of Visible Light
Length of Day
Tomorrow will be .
, % of the Moon is Illuminated

Today's Extremes

State Highs State Lows

Community

WunderPhotos

Upload Photos

1,892,278 photos uploaded!

WunderBlog® & News

Nearby

Air Quality

  Air Quality AQ Index Pollutant
Not available.

Snow Depth

Station Depth Elevation

Earthquake Activity

City Distance Mag. Time & Date
Minimum magnitude displayed is 2.5.

Coastal Water Temperatures

Place Temperature

Stations

Nearby Weather Stations

Station Location Temp. Windchill Dew Point Humidity Wind Precip. Elev Updated Type
                   

Watches & Warnings

There are currently no watches in effect.